Time;durP1;ratioP1;P1;durP2;ratioP2;P2;SDS_P1;SDS_P2;PMS_P1;PMS_P2;Temp;Humidity;BMP_temperature;BMP_pressure;BME280_temperature;BME280_humidity;BME280_pressure;Samples;Min_cycle;Max_cycle;Signal;HPM_P1;HPM_P2
2022/11/05 00:09:59;;;;;;;10.77;3.63;;;;;;;;;;5071670;28;20467;-68
2022/11/05 00:17:55;;;;;;;6.47;3.60;;;;;;;;;;5071771;28;20650;-68
2022/11/05 00:20:21;;;;;;;9.38;3.97;;;;;;;;;;5069882;28;20041;-68
2022/11/05 00:25:32;;;;;;;6.70;3.53;;;;;;;;;;5071515;28;20765;-68
2022/11/05 00:28:01;;;;;;;10.80;3.13;;;;;;;;;;5071191;28;20079;-68
2022/11/05 00:30:29;;;;;;;10.13;3.33;;;;;;;;;;5071508;28;20068;-68
2022/11/05 00:32:59;;;;;;;9.63;3.00;;;;;;;;;;5071386;28;20523;-68
2022/11/05 00:35:25;;;;;;;6.50;3.03;;;;;;;;;;5071047;28;20045;-68
2022/11/05 00:37:52;;;;;;;8.38;2.53;;;;;;;;;;5071281;28;20150;-68
2022/11/05 00:40:19;;;;;;;12.43;3.28;;;;;;;;;;5071461;28;20079;-68
2022/11/05 00:45:30;;;;;;;7.35;3.53;;;;;;;;;;5071588;28;20119;-68
2022/11/05 00:50:41;;;;;;;14.38;3.60;;;;;;;;;;5071006;28;20041;-68
2022/11/05 00:53:07;;;;;;;7.60;3.80;;;;;;;;;;5071351;28;20087;-68
2022/11/05 00:55:33;;;;;;;13.05;3.03;;;;;;;;;;5071382;28;20503;-68
2022/11/05 00:58:00;;;;;;;9.23;3.33;;;;;;;;;;5103492;28;20127;-68
2022/11/05 01:00:27;;;;;;;8.07;3.00;;;;;;;;;;5071160;28;20038;-68
2022/11/05 01:02:56;;;;;;;7.47;3.00;;;;;;;;;;5103727;28;20041;-68
2022/11/05 01:05:22;;;;;;;11.82;3.13;;;;;;;;;;5070423;28;20036;-68
2022/11/05 01:07:48;;;;;;;9.15;3.08;;;;;;;;;;5071166;28;20072;-68
2022/11/05 01:10:14;;;;;;;6.95;3.38;;;;;;;;;;5071186;28;20116;-68
2022/11/05 01:12:40;;;;;;;10.18;2.55;;;;;;;;;;5070812;28;20040;-68
2022/11/05 01:15:07;;;;;;;8.70;2.88;;;;;;;;;;5071171;28;20456;-68
2022/11/05 01:17:33;;;;;;;6.97;2.88;;;;;;;;;;5071013;28;20044;-68
2022/11/05 01:19:59;;;;;;;7.28;3.10;;;;;;;;;;5070334;28;20032;-68
2022/11/05 01:22:25;;;;;;;12.93;3.55;;;;;;;;;;5069915;28;20048;-68
2022/11/05 01:24:51;;;;;;;6.10;2.85;;;;;;;;;;5071216;28;20051;-68
2022/11/05 01:27:17;;;;;;;13.10;3.55;;;;;;;;;;5070496;28;20041;-68
2022/11/05 01:29:43;;;;;;;14.20;4.22;;;;;;;;;;5071042;28;20045;-68
2022/11/05 01:32:09;;;;;;;10.95;3.40;;;;;;;;;;5070992;28;20047;-68
2022/11/05 01:34:35;;;;;;;8.25;3.65;;;;;;;;;;5074211;28;20086;-68
2022/11/05 01:37:01;;;;;;;8.00;3.40;;;;;;;;;;5074680;28;20052;-68
2022/11/05 01:39:27;;;;;;;11.55;3.42;;;;;;;;;;5074144;28;20061;-68
2022/11/05 01:41:53;;;;;;;12.18;4.53;;;;;;;;;;5073827;28;20143;-68
2022/11/05 01:44:38;;;;;;;9.65;3.55;;;;;;;;;;5074534;28;20434;-68
2022/11/05 01:47:04;;;;;;;11.70;4.25;;;;;;;;;;5074321;28;20040;-68
2022/11/05 01:49:32;;;;;;;8.38;3.05;;;;;;;;;;5073941;28;20040;-68
2022/11/05 01:51:59;;;;;;;11.75;4.03;;;;;;;;;;5074437;28;20169;-68
2022/11/05 01:54:29;;;;;;;9.95;3.75;;;;;;;;;;5073993;28;20047;-68
2022/11/05 01:57:00;;;;;;;12.07;4.07;;;;;;;;;;5073927;28;20044;-68
2022/11/05 01:59:34;;;;;;;10.55;4.53;;;;;;;;;;5074019;28;20047;-68
2022/11/05 02:02:01;;;;;;;9.50;3.65;;;;;;;;;;5074077;28;20126;-68
2022/11/05 02:04:30;;;;;;;10.70;4.13;;;;;;;;;;5073808;28;20048;-68
2022/11/05 02:06:56;;;;;;;11.00;4.00;;;;;;;;;;5103640;28;20048;-68
2022/11/05 02:09:26;;;;;;;6.53;3.38;;;;;;;;;;5074003;28;20548;-68
2022/11/05 02:11:52;;;;;;;9.00;4.05;;;;;;;;;;5073528;28;20040;-68
2022/11/05 02:14:18;;;;;;;8.70;3.53;;;;;;;;;;5073733;28;20656;-68
2022/11/05 02:17:16;;;;;;;11.52;3.67;;;;;;;;;;5073902;28;20039;-68
2022/11/05 02:19:57;;;;;;;13.65;3.65;;;;;;;;;;5061006;28;20052;-68
2022/11/05 02:22:43;;;;;;;10.55;3.80;;;;;;;;;;5073777;28;20033;-68
2022/11/05 02:25:27;;;;;;;9.48;3.85;;;;;;;;;;5061630;28;20048;-68
2022/11/05 02:28:12;;;;;;;10.45;3.42;;;;;;;;;;5073751;28;20490;-68
2022/11/05 02:30:41;;;;;;;10.15;3.70;;;;;;;;;;5073622;28;20040;-68
2022/11/05 02:33:10;;;;;;;14.18;4.40;;;;;;;;;;5053295;28;20041;-68
2022/11/05 02:35:36;;;;;;;8.88;3.30;;;;;;;;;;5053534;28;20041;-68
2022/11/05 02:38:05;;;;;;;7.38;3.80;;;;;;;;;;5053303;28;20412;-68
2022/11/05 02:40:31;;;;;;;7.68;3.50;;;;;;;;;;5052575;28;20384;-68
2022/11/05 02:43:06;;;;;;;9.15;3.85;;;;;;;;;;5053480;28;20032;-68
2022/11/05 02:45:35;;;;;;;11.40;4.03;;;;;;;;;;5052350;28;20438;-68
2022/11/05 02:48:11;;;;;;;7.72;4.05;;;;;;;;;;5052920;28;20100;-68
2022/11/05 02:50:43;;;;;;;8.65;3.92;;;;;;;;;;5053274;28;20396;-68
2022/11/05 02:53:11;;;;;;;6.13;3.55;;;;;;;;;;5053338;28;20048;-68
2022/11/05 02:55:47;;;;;;;6.20;3.42;;;;;;;;;;5052787;28;20052;-68
2022/11/05 02:58:13;;;;;;;8.70;4.15;;;;;;;;;;5053074;28;20033;-68
2022/11/05 03:00:45;;;;;;;8.02;4.20;;;;;;;;;;5052955;28;20041;-68
2022/11/05 03:03:14;;;;;;;10.68;3.90;;;;;;;;;;5052879;28;20041;-68
2022/11/05 03:05:47;;;;;;;6.07;3.75;;;;;;;;;;5053089;28;20074;-68
2022/11/05 03:08:21;;;;;;;9.55;4.00;;;;;;;;;;5069896;28;20043;-68
2022/11/05 03:11:04;;;;;;;6.72;4.03;;;;;;;;;;5072606;28;20473;-67
2022/11/05 03:13:43;;;;;;;10.02;3.72;;;;;;;;;;5073048;28;20044;-67
2022/11/05 03:16:18;;;;;;;8.20;3.97;;;;;;;;;;5073280;28;20040;-67
2022/11/05 03:18:44;;;;;;;9.48;4.07;;;;;;;;;;5072392;28;20041;-67
2022/11/05 03:21:17;;;;;;;7.45;3.58;;;;;;;;;;5072562;28;20115;-67
2022/11/05 03:23:55;;;;;;;8.38;4.10;;;;;;;;;;5072306;28;20127;-67
2022/11/05 03:26:33;;;;;;;10.00;3.78;;;;;;;;;;5072578;28;20781;-67
2022/11/05 03:29:01;;;;;;;8.82;3.60;;;;;;;;;;5072283;28;20089;-67
2022/11/05 03:31:29;;;;;;;8.60;3.88;;;;;;;;;;5071873;28;20040;-67
2022/11/05 03:33:56;;;;;;;8.23;3.90;;;;;;;;;;5072302;28;20479;-67
2022/11/05 03:36:28;;;;;;;8.05;3.80;;;;;;;;;;5071013;28;20041;-67
2022/11/05 03:38:55;;;;;;;9.65;4.70;;;;;;;;;;5071583;28;20048;-67
2022/11/05 03:41:22;;;;;;;10.23;4.20;;;;;;;;;;5072107;28;20459;-67
2022/11/05 03:43:50;;;;;;;8.88;4.20;;;;;;;;;;5072305;28;20044;-67
2022/11/05 03:46:27;;;;;;;15.50;4.63;;;;;;;;;;5071762;28;20121;-67
2022/11/05 03:48:54;;;;;;;10.15;4.47;;;;;;;;;;5072156;28;20041;-67
2022/11/05 03:51:28;;;;;;;12.02;4.60;;;;;;;;;;5072105;28;20033;-67
2022/11/05 03:53:56;;;;;;;9.52;4.00;;;;;;;;;;5071435;28;20037;-67
2022/11/05 03:56:22;;;;;;;8.60;4.40;;;;;;;;;;5071187;28;20436;-67
2022/11/05 03:58:48;;;;;;;10.05;4.10;;;;;;;;;;5071923;28;20075;-67
2022/11/05 04:01:14;;;;;;;10.32;4.13;;;;;;;;;;5071356;28;20300;-67
2022/11/05 04:03:40;;;;;;;13.05;5.32;;;;;;;;;;5071918;28;20033;-67
2022/11/05 04:14:25;;;;;;;8.70;5.00;;;;;;;;;;5051747;28;20468;-67
2022/11/05 04:17:07;;;;;;;11.10;4.50;;;;;;;;;;5051427;28;20184;-67
2022/11/05 04:25:04;;;;;;;7.97;4.72;;;;;;;;;;5051358;28;20141;-67
2022/11/05 04:27:30;;;;;;;10.52;4.65;;;;;;;;;;5071290;28;20036;-67
2022/11/05 04:32:40;;;;;;;9.93;4.47;;;;;;;;;;5071222;28;20394;-67
2022/11/05 04:35:06;;;;;;;8.90;4.35;;;;;;;;;;5071271;28;20037;-67
2022/11/05 04:37:32;;;;;;;6.85;4.22;;;;;;;;;;5071374;28;20464;-67
2022/11/05 04:39:58;;;;;;;14.32;4.80;;;;;;;;;;5070865;28;20082;-67
2022/11/05 04:42:24;;;;;;;9.23;4.35;;;;;;;;;;5071298;28;20044;-67
2022/11/05 04:44:50;;;;;;;8.48;4.78;;;;;;;;;;5071399;28;20041;-67
2022/11/05 04:47:16;;;;;;;7.32;4.22;;;;;;;;;;5070971;28;20045;-67
2022/11/05 04:49:42;;;;;;;9.27;4.60;;;;;;;;;;5071225;28;20044;-67
2022/11/05 04:52:09;;;;;;;11.55;4.70;;;;;;;;;;5071215;28;20032;-67
2022/11/05 04:54:35;;;;;;;7.93;4.07;;;;;;;;;;5070916;28;20072;-67
2022/11/05 04:57:01;;;;;;;9.50;4.68;;;;;;;;;;5071355;28;20045;-67
2022/11/05 04:59:27;;;;;;;9.32;4.32;;;;;;;;;;5071215;28;20129;-67
2022/11/05 05:01:53;;;;;;;10.68;4.40;;;;;;;;;;5070910;28;20037;-67
2022/11/05 05:04:19;;;;;;;9.13;4.68;;;;;;;;;;5071376;28;20041;-67
2022/11/05 05:06:45;;;;;;;9.20;4.78;;;;;;;;;;5071112;28;20064;-67
2022/11/05 05:09:11;;;;;;;8.80;4.10;;;;;;;;;;5073953;28;20048;-67
2022/11/05 05:11:37;;;;;;;7.70;4.30;;;;;;;;;;5073773;28;20521;-67
2022/11/05 05:14:03;;;;;;;8.10;4.15;;;;;;;;;;5075020;28;20044;-67
2022/11/05 05:16:29;;;;;;;9.60;4.57;;;;;;;;;;5074569;28;20036;-67
2022/11/05 05:18:55;;;;;;;9.68;4.10;;;;;;;;;;5075070;28;20033;-67
2022/11/05 05:21:37;;;;;;;9.48;4.45;;;;;;;;;;5074849;28;20123;-67
2022/11/05 05:24:04;;;;;;;9.90;4.80;;;;;;;;;;5074579;28;20032;-67
2022/11/05 05:26:30;;;;;;;9.48;4.30;;;;;;;;;;5074809;28;20497;-67
2022/11/05 05:28:56;;;;;;;12.52;4.05;;;;;;;;;;5074795;28;20036;-67
2022/11/05 05:31:22;;;;;;;8.82;4.45;;;;;;;;;;5074450;28;20383;-67
2022/11/05 05:33:48;;;;;;;9.32;4.32;;;;;;;;;;5074377;28;20044;-67
2022/11/05 05:36:15;;;;;;;11.15;4.95;;;;;;;;;;5074639;28;20044;-67
2022/11/05 05:38:40;;;;;;;11.82;4.70;;;;;;;;;;5073799;28;20051;-67
2022/11/05 05:41:07;;;;;;;8.20;4.10;;;;;;;;;;5074723;28;20620;-67
2022/11/05 05:43:33;;;;;;;7.75;4.57;;;;;;;;;;5074687;28;20040;-67
2022/11/05 05:46:06;;;;;;;7.53;5.38;;;;;;;;;;5074121;28;20483;-67
2022/11/05 05:48:33;;;;;;;8.77;4.72;;;;;;;;;;5074486;28;20082;-67
2022/11/05 05:51:02;;;;;;;11.00;4.75;;;;;;;;;;5074403;28;20048;-67
2022/11/05 05:53:29;;;;;;;10.70;5.32;;;;;;;;;;5074273;28;20045;-67
2022/11/05 05:55:55;;;;;;;9.65;4.82;;;;;;;;;;5074387;28;20642;-67
2022/11/05 05:58:22;;;;;;;8.95;4.68;;;;;;;;;;5073962;28;20048;-67
2022/11/05 06:00:48;;;;;;;8.15;4.85;;;;;;;;;;5073583;28;20084;-67
2022/11/05 06:03:14;;;;;;;12.43;5.20;;;;;;;;;;5074208;28;20036;-67
2022/11/05 06:05:40;;;;;;;11.05;4.97;;;;;;;;;;5074132;28;20463;-68
2022/11/05 06:08:06;;;;;;;10.35;4.72;;;;;;;;;;5073579;28;20090;-68
2022/11/05 06:10:32;;;;;;;10.48;4.50;;;;;;;;;;5073979;28;20460;-68
2022/11/05 06:13:01;;;;;;;7.85;4.45;;;;;;;;;;5074078;28;20093;-68
2022/11/05 06:15:27;;;;;;;10.82;4.85;;;;;;;;;;5073596;28;20095;-68
2022/11/05 06:17:53;;;;;;;12.68;4.82;;;;;;;;;;5073897;28;20029;-68
2022/11/05 06:20:19;;;;;;;8.68;4.95;;;;;;;;;;5072670;28;20455;-68
2022/11/05 06:22:55;;;;;;;10.40;4.65;;;;;;;;;;5073483;28;20042;-68
2022/11/05 06:25:21;;;;;;;9.30;5.18;;;;;;;;;;5073686;28;20051;-68
2022/11/05 06:27:47;;;;;;;10.10;5.00;;;;;;;;;;5073476;28;20048;-68
2022/11/05 06:30:13;;;;;;;12.23;5.25;;;;;;;;;;5073222;28;20535;-68
2022/11/05 06:32:39;;;;;;;13.32;4.95;;;;;;;;;;5073388;28;20083;-68
2022/11/05 06:35:05;;;;;;;11.80;5.45;;;;;;;;;;5073368;28;20048;-68
2022/11/05 06:37:32;;;;;;;8.25;5.18;;;;;;;;;;5072504;28;20040;-68
2022/11/05 06:39:59;;;;;;;11.80;4.90;;;;;;;;;;5073524;28;20076;-68
2022/11/05 06:42:25;;;;;;;9.57;4.75;;;;;;;;;;5073348;28;20132;-68
2022/11/05 06:44:51;;;;;;;9.48;5.18;;;;;;;;;;5073146;28;20051;-68
2022/11/05 06:47:18;;;;;;;10.05;5.20;;;;;;;;;;5073281;28;20055;-68
2022/11/05 06:49:44;;;;;;;9.90;4.85;;;;;;;;;;5072872;28;20041;-68
2022/11/05 06:52:11;;;;;;;6.30;4.70;;;;;;;;;;5073020;28;20115;-68
2022/11/05 06:54:37;;;;;;;14.60;5.30;;;;;;;;;;5073318;28;20458;-68
2022/11/05 06:57:03;;;;;;;8.02;5.00;;;;;;;;;;5073304;28;20378;-68
2022/11/05 06:59:29;;;;;;;9.18;5.22;;;;;;;;;;5072681;28;20638;-68
2022/11/05 07:01:55;;;;;;;10.45;4.72;;;;;;;;;;5072920;28;20041;-68
2022/11/05 07:04:21;;;;;;;7.43;4.88;;;;;;;;;;5073109;28;20044;-68
2022/11/05 07:06:47;;;;;;;11.75;4.97;;;;;;;;;;5104965;28;20158;-68
2022/11/05 07:09:13;;;;;;;10.57;5.25;;;;;;;;;;5072610;28;20040;-68
2022/11/05 07:11:39;;;;;;;11.43;5.07;;;;;;;;;;5072908;28;20037;-68
2022/11/05 07:14:05;;;;;;;11.57;5.10;;;;;;;;;;5071975;28;20044;-68
2022/11/05 07:16:31;;;;;;;6.55;4.80;;;;;;;;;;5072567;28;20044;-68
2022/11/05 07:18:57;;;;;;;9.63;4.80;;;;;;;;;;5072774;28;20119;-68
2022/11/05 07:21:24;;;;;;;11.38;4.90;;;;;;;;;;5071019;28;20048;-68
2022/11/05 07:23:50;;;;;;;13.63;5.72;;;;;;;;;;5072246;28;20120;-68
2022/11/05 07:26:16;;;;;;;8.63;5.15;;;;;;;;;;5072577;28;20072;-68
2022/11/05 07:28:42;;;;;;;8.80;4.97;;;;;;;;;;5071902;28;20055;-68
2022/11/05 07:31:08;;;;;;;9.45;5.35;;;;;;;;;;5072228;28;20034;-68
2022/11/05 07:33:34;;;;;;;10.23;5.85;;;;;;;;;;5072254;28;20043;-68
2022/11/05 07:36:00;;;;;;;11.27;5.18;;;;;;;;;;5071780;28;20044;-68
2022/11/05 07:38:26;;;;;;;11.48;5.68;;;;;;;;;;5072113;28;20090;-68
2022/11/05 07:40:52;;;;;;;9.15;5.07;;;;;;;;;;5072196;28;20044;-68
2022/11/05 07:43:18;;;;;;;9.10;4.95;;;;;;;;;;5071897;28;20048;-68
2022/11/05 07:45:46;;;;;;;11.75;5.00;;;;;;;;;;5071804;28;20071;-68
2022/11/05 07:48:12;;;;;;;12.93;6.00;;;;;;;;;;5072104;28;20045;-68
2022/11/05 07:50:38;;;;;;;9.45;5.70;;;;;;;;;;5071194;28;20119;-68
2022/11/05 07:53:05;;;;;;;10.77;4.85;;;;;;;;;;5104406;28;20043;-68
2022/11/05 07:55:32;;;;;;;7.95;5.15;;;;;;;;;;5104523;28;20154;-68
2022/11/05 07:57:58;;;;;;;11.30;5.75;;;;;;;;;;5071625;28;20614;-68
2022/11/05 08:00:25;;;;;;;11.25;5.50;;;;;;;;;;5071827;28;20043;-68
2022/11/05 08:03:01;;;;;;;7.50;4.82;;;;;;;;;;5071983;28;20048;-68
2022/11/05 08:05:27;;;;;;;8.48;5.38;;;;;;;;;;5071237;28;20094;-68
2022/11/05 08:07:54;;;;;;;10.43;5.45;;;;;;;;;;5104353;28;20051;-68
2022/11/05 08:10:21;;;;;;;8.80;4.90;;;;;;;;;;5071777;28;20754;-68
2022/11/05 08:12:47;;;;;;;8.25;4.88;;;;;;;;;;5071440;28;20386;-68
2022/11/05 08:15:13;;;;;;;9.75;5.20;;;;;;;;;;5071602;28;20127;-68
2022/11/05 08:17:39;;;;;;;7.78;5.20;;;;;;;;;;5071474;28;20059;-68
2022/11/05 08:20:05;;;;;;;9.95;4.75;;;;;;;;;;5071268;28;20368;-68
2022/11/05 08:22:31;;;;;;;10.80;4.85;;;;;;;;;;5070247;28;20048;-68
2022/11/05 08:24:57;;;;;;;9.75;4.97;;;;;;;;;;5070552;28;20457;-68
2022/11/05 08:27:23;;;;;;;9.27;4.93;;;;;;;;;;5071178;28;20074;-68
2022/11/05 08:29:49;;;;;;;9.15;4.63;;;;;;;;;;5071276;28;20066;-68
2022/11/05 08:32:15;;;;;;;8.30;4.57;;;;;;;;;;5071559;28;20068;-68
2022/11/05 08:34:41;;;;;;;11.32;5.55;;;;;;;;;;5071152;28;20082;-68
2022/11/05 08:37:07;;;;;;;8.32;4.95;;;;;;;;;;5071409;28;20491;-68
2022/11/05 08:39:34;;;;;;;9.45;5.40;;;;;;;;;;5071038;28;20056;-68
2022/11/05 08:42:00;;;;;;;11.40;5.85;;;;;;;;;;5072536;28;20040;-68
2022/11/05 08:44:26;;;;;;;11.73;5.63;;;;;;;;;;5077772;28;20089;-68
2022/11/05 08:46:53;;;;;;;11.48;5.82;;;;;;;;;;5077943;28;20044;-68
2022/11/05 08:49:19;;;;;;;12.80;5.97;;;;;;;;;;5078078;28;20037;-68
2022/11/05 08:51:45;;;;;;;10.50;5.63;;;;;;;;;;5077370;28;20037;-68
2022/11/05 08:54:11;;;;;;;9.73;5.30;;;;;;;;;;5110334;28;20087;-68
2022/11/05 08:56:37;;;;;;;12.45;5.10;;;;;;;;;;5078102;28;20234;-68
2022/11/05 08:59:03;;;;;;;7.20;5.30;;;;;;;;;;5077539;28;20079;-67
2022/11/05 09:01:29;;;;;;;11.40;5.18;;;;;;;;;;5077621;28;20118;-67
2022/11/05 09:03:55;;;;;;;6.10;4.97;;;;;;;;;;5077820;28;20102;-67
2022/11/05 09:06:21;;;;;;;11.98;5.53;;;;;;;;;;5077341;28;20119;-67
2022/11/05 09:08:47;;;;;;;11.55;5.95;;;;;;;;;;5077670;28;20040;-67
2022/11/05 09:11:13;;;;;;;10.52;5.00;;;;;;;;;;5077818;28;20035;-67
2022/11/05 09:13:39;;;;;;;9.23;5.13;;;;;;;;;;5077044;28;20040;-67
2022/11/05 09:16:06;;;;;;;9.40;5.25;;;;;;;;;;5077752;28;20086;-67
2022/11/05 09:18:33;;;;;;;8.52;4.97;;;;;;;;;;5077480;28;20139;-67
2022/11/05 09:20:58;;;;;;;9.40;5.22;;;;;;;;;;5077368;28;20123;-67
2022/11/05 09:23:25;;;;;;;7.95;5.35;;;;;;;;;;5077585;28;20443;-67
2022/11/05 09:25:51;;;;;;;10.77;5.50;;;;;;;;;;5077736;28;20039;-67
2022/11/05 09:28:18;;;;;;;9.38;5.03;;;;;;;;;;5077336;28;20391;-67
2022/11/05 09:30:46;;;;;;;10.65;4.85;;;;;;;;;;5077649;28;20036;-67
2022/11/05 09:33:13;;;;;;;9.65;4.68;;;;;;;;;;5077668;28;20046;-67
2022/11/05 09:35:39;;;;;;;11.13;4.68;;;;;;;;;;5077228;28;20040;-67
2022/11/05 09:38:06;;;;;;;5.60;4.40;;;;;;;;;;5077340;28;20044;-67
2022/11/05 09:40:35;;;;;;;10.93;5.00;;;;;;;;;;5077565;28;20048;-67
2022/11/05 09:43:02;;;;;;;8.88;4.60;;;;;;;;;;5109945;28;20049;-67
2022/11/05 09:45:28;;;;;;;11.52;4.93;;;;;;;;;;5077646;28;20044;-67
2022/11/05 09:47:57;;;;;;;7.80;4.32;;;;;;;;;;5077615;28;20044;-67
2022/11/05 09:50:30;;;;;;;9.43;4.68;;;;;;;;;;5077200;28;20078;-67
2022/11/05 09:52:56;;;;;;;7.10;4.30;;;;;;;;;;5077620;28;20099;-67
2022/11/05 09:55:31;;;;;;;5.95;4.20;;;;;;;;;;5074433;28;20094;-67
2022/11/05 09:58:01;;;;;;;7.97;3.97;;;;;;;;;;5074073;28;20047;-67
2022/11/05 10:00:28;;;;;;;7.68;4.00;;;;;;;;;;5074241;28;20142;-67
2022/11/05 10:02:59;;;;;;;6.03;3.83;;;;;;;;;;5073902;28;20048;-67
2022/11/05 10:05:26;;;;;;;9.55;3.80;;;;;;;;;;5073670;28;20471;-67
2022/11/05 10:07:57;;;;;;;9.98;4.03;;;;;;;;;;5073897;28;20119;-67
2022/11/05 10:10:29;;;;;;;11.52;3.92;;;;;;;;;;5073883;28;20040;-67
2022/11/05 10:13:00;;;;;;;8.73;3.58;;;;;;;;;;5073610;28;20414;-67
2022/11/05 10:15:49;;;;;;;8.90;3.70;;;;;;;;;;5073455;28;20127;-67
2022/11/05 10:18:19;;;;;;;5.68;2.92;;;;;;;;;;5073498;28;20043;-67
2022/11/05 10:20:45;;;;;;;8.70;3.13;;;;;;;;;;5073752;28;20041;-67
2022/11/05 10:23:15;;;;;;;8.48;3.25;;;;;;;;;;5073776;28;20601;-67
2022/11/05 10:25:44;;;;;;;5.93;3.05;;;;;;;;;;5073754;28;20100;-67
2022/11/05 10:28:15;;;;;;;5.55;2.67;;;;;;;;;;5073805;28;20044;-67
2022/11/05 10:30:42;;;;;;;6.28;2.80;;;;;;;;;;5073557;28;20459;-67
2022/11/05 10:33:09;;;;;;;9.10;2.97;;;;;;;;;;5073490;28;20131;-67
2022/11/05 10:35:47;;;;;;;8.18;2.83;;;;;;;;;;5073607;28;20433;-67
2022/11/05 10:38:14;;;;;;;10.82;3.08;;;;;;;;;;5073410;28;20049;-67
2022/11/05 10:40:43;;;;;;;7.10;2.95;;;;;;;;;;5073168;28;20064;-67
2022/11/05 10:43:09;;;;;;;7.45;2.38;;;;;;;;;;5073681;28;20039;-67
2022/11/05 10:45:52;;;;;;;5.75;2.35;;;;;;;;;;5073253;28;20454;-67
2022/11/05 10:48:18;;;;;;;;;;;;;;;;;;5073335;28;20049;-67
2022/11/05 10:50:44;;;;;;;6.78;2.38;;;;;;;;;;5073223;28;19983;-67
2022/11/05 10:53:14;;;;;;;5.18;2.40;;;;;;;;;;5073298;28;20070;-67
2022/11/05 10:55:50;;;;;;;7.47;2.70;;;;;;;;;;5072817;28;20467;-67
2022/11/05 10:58:16;;;;;;;8.35;2.70;;;;;;;;;;5073196;28;20032;-67
2022/11/05 11:00:43;;;;;;;6.45;2.88;;;;;;;;;;5073000;28;20174;-67
2022/11/05 11:03:47;;;;;;;8.50;2.67;;;;;;;;;;5072755;28;20409;-67
2022/11/05 11:06:24;;;;;;;11.48;2.50;;;;;;;;;;5069353;28;20119;-67
2022/11/05 11:08:51;;;;;;;5.00;2.40;;;;;;;;;;5070153;28;20105;-67
2022/11/05 11:11:36;;;;;;;5.05;2.20;;;;;;;;;;5071074;28;20044;-67
2022/11/05 11:14:05;;;;;;;4.28;2.70;;;;;;;;;;5072852;28;20055;-67
2022/11/05 11:16:41;;;;;;;6.25;2.50;;;;;;;;;;5072944;28;20332;-67
2022/11/05 11:19:20;;;;;;;5.45;2.22;;;;;;;;;;5072265;28;20040;-67
2022/11/05 11:21:46;;;;;;;7.18;2.08;;;;;;;;;;5072784;28;20083;-67
2022/11/05 11:24:21;;;;;;;5.13;2.00;;;;;;;;;;5072385;28;20044;-67
2022/11/05 11:26:47;;;;;;;5.80;1.90;;;;;;;;;;5072075;28;20044;-67
2022/11/05 11:29:19;;;;;;;5.18;2.00;;;;;;;;;;5072201;28;20086;-67
2022/11/05 11:31:46;;;;;;;8.30;1.88;;;;;;;;;;5072476;28;20036;-67
2022/11/05 11:34:16;;;;;;;6.00;1.60;;;;;;;;;;5071662;28;20044;-67
2022/11/05 11:36:46;;;;;;;5.80;1.80;;;;;;;;;;5072404;28;20037;-67
2022/11/05 11:39:16;;;;;;;4.25;1.40;;;;;;;;;;5071920;28;20048;-67
2022/11/05 11:41:43;;;;;;;6.28;1.90;;;;;;;;;;5071845;28;20047;-67
2022/11/05 11:44:28;;;;;;;5.43;1.90;;;;;;;;;;5072282;28;20055;-67
2022/11/05 11:47:00;;;;;;;5.93;1.90;;;;;;;;;;5072075;28;20078;-67
2022/11/05 11:49:31;;;;;;;10.80;1.98;;;;;;;;;;5071725;28;20065;-67
2022/11/05 11:52:03;;;;;;;4.18;1.48;;;;;;;;;;5071855;28;20049;-67
2022/11/05 11:54:30;;;;;;;7.00;1.92;;;;;;;;;;5071915;28;20041;-67
2022/11/05 11:56:56;;;;;;;3.90;1.60;;;;;;;;;;5071978;28;20068;-67
2022/11/05 11:59:29;;;;;;;5.40;1.50;;;;;;;;;;5071902;28;20555;-67
2022/11/05 12:02:16;;;;;;;5.05;2.20;;;;;;;;;;5103965;28;20072;-67
2022/11/05 12:05:06;;;;;;;3.38;1.60;;;;;;;;;;5072025;28;20056;-67
2022/11/05 12:07:42;;;;;;;4.07;1.75;;;;;;;;;;5071026;28;20131;-67
2022/11/05 12:10:23;;;;;;;5.75;1.90;;;;;;;;;;5071275;28;20462;-67
2022/11/05 12:12:55;;;;;;;5.80;1.60;;;;;;;;;;5071949;28;20041;-67
2022/11/05 12:15:40;;;;;;;3.95;2.15;;;;;;;;;;5071806;28;20302;-67
2022/11/05 12:18:13;;;;;;;6.25;2.00;;;;;;;;;;5070677;28;20044;-67
2022/11/05 12:20:45;;;;;;;4.95;1.80;;;;;;;;;;5071636;28;20032;-67
2022/11/05 12:23:23;;;;;;;8.27;2.00;;;;;;;;;;5071822;28;20033;-67
2022/11/05 12:26:09;;;;;;;3.33;1.92;;;;;;;;;;5071251;28;20040;-67
2022/11/05 12:28:38;;;;;;;5.13;1.92;;;;;;;;;;5071164;28;20045;-67
2022/11/05 12:31:23;;;;;;;6.43;2.15;;;;;;;;;;5071461;28;20029;-67
2022/11/05 12:34:08;;;;;;;6.20;2.15;;;;;;;;;;5071344;28;20045;-67
2022/11/05 12:36:34;;;;;;;5.53;2.60;;;;;;;;;;5071599;28;20044;-67
2022/11/05 12:39:09;;;;;;;6.20;2.42;;;;;;;;;;5070773;28;20498;-67
2022/11/05 12:41:54;;;;;;;5.45;2.38;;;;;;;;;;5071534;28;20037;-67
2022/11/05 12:44:26;;;;;;;9.18;2.60;;;;;;;;;;5071419;28;20036;-67
2022/11/05 12:46:59;;;;;;;6.53;2.75;;;;;;;;;;5070674;28;20044;-67
2022/11/05 12:49:33;;;;;;;6.22;2.67;;;;;;;;;;5071407;28;20036;-67
2022/11/05 12:52:05;;;;;;;9.25;2.72;;;;;;;;;;5071491;28;20044;-67
2022/11/05 12:54:34;;;;;;;6.72;2.97;;;;;;;;;;5071056;28;20486;-67
2022/11/05 12:57:02;;;;;;;11.85;3.65;;;;;;;;;;5071410;28;20037;-67
2022/11/05 12:59:36;;;;;;;7.70;3.00;;;;;;;;;;5071280;28;20037;-67
2022/11/05 13:02:15;;;;;;;12.70;3.42;;;;;;;;;;5103283;28;20060;-67
2022/11/05 13:04:58;;;;;;;11.38;3.20;;;;;;;;;;5071234;28;20048;-67
2022/11/05 13:07:29;;;;;;;6.90;3.20;;;;;;;;;;5071150;28;20040;-67
2022/11/05 13:09:58;;;;;;;7.70;3.53;;;;;;;;;;5070809;28;20426;-67
2022/11/05 13:12:25;;;;;;;9.52;3.20;;;;;;;;;;5070447;28;20043;-67
2022/11/05 13:14:58;;;;;;;9.05;3.33;;;;;;;;;;5070587;28;20388;-67
2022/11/05 13:17:27;;;;;;;5.38;2.58;;;;;;;;;;5070708;28;20490;-67
2022/11/05 13:20:02;;;;;;;9.48;3.55;;;;;;;;;;5071172;28;20054;-67
2022/11/05 13:22:28;;;;;;;9.45;3.58;;;;;;;;;;5071322;28;20048;-68
2022/11/05 13:25:00;;;;;;;9.00;3.33;;;;;;;;;;5070837;28;20043;-67
2022/11/05 13:27:45;;;;;;;7.75;3.35;;;;;;;;;;5071157;28;20509;-67
2022/11/05 13:30:13;;;;;;;9.10;3.53;;;;;;;;;;5074550;28;20041;-68
2022/11/05 13:32:41;;;;;;;10.55;3.58;;;;;;;;;;5074258;28;20109;-68
2022/11/05 13:35:14;;;;;;;13.73;3.30;;;;;;;;;;5074879;28;20143;-68
2022/11/05 13:40:40;;;;;;;10.10;3.85;;;;;;;;;;5074212;28;20044;-68
2022/11/05 13:43:06;;;;;;;8.63;3.47;;;;;;;;;;5074617;28;20040;-68
2022/11/05 13:45:50;;;;;;;11.25;3.80;;;;;;;;;;5074375;28;20045;-68
2022/11/05 13:48:37;;;;;;;11.32;3.80;;;;;;;;;;5074352;28;20041;-68
2022/11/05 13:51:12;;;;;;;7.55;3.88;;;;;;;;;;5073427;28;20135;-68
2022/11/05 13:53:50;;;;;;;8.75;3.88;;;;;;;;;;5074053;28;20048;-68
2022/11/05 13:56:31;;;;;;;10.45;4.25;;;;;;;;;;5074251;28;20136;-68
2022/11/05 13:59:03;;;;;;;12.53;4.13;;;;;;;;;;5074096;28;20044;-68
2022/11/05 14:01:44;;;;;;;14.48;4.07;;;;;;;;;;5073761;28;20098;-68
2022/11/05 14:04:14;;;;;;;9.07;4.15;;;;;;;;;;5106634;28;20041;-68
2022/11/05 14:06:40;;;;;;;8.88;4.20;;;;;;;;;;5073967;28;20039;-68
2022/11/05 14:09:09;;;;;;;10.73;4.05;;;;;;;;;;5073457;28;20040;-68
2022/11/05 14:11:37;;;;;;;7.57;4.22;;;;;;;;;;5074124;28;20502;-68
2022/11/05 14:14:05;;;;;;;6.45;3.80;;;;;;;;;;5074031;28;20094;-68
2022/11/05 14:16:48;;;;;;;10.85;4.82;;;;;;;;;;5073670;28;20049;-68
2022/11/05 14:19:20;;;;;;;10.15;4.90;;;;;;;;;;5073745;28;20043;-68
2022/11/05 14:21:46;;;;;;;8.40;4.72;;;;;;;;;;5074007;28;20060;-68
2022/11/05 14:24:31;;;;;;;8.82;5.25;;;;;;;;;;5073584;28;20700;-68
2022/11/05 14:27:00;;;;;;;9.23;4.50;;;;;;;;;;5073537;28;20037;-68
2022/11/05 14:29:45;;;;;;;8.07;4.68;;;;;;;;;;5073516;28;20119;-68
2022/11/05 14:32:17;;;;;;;10.50;5.43;;;;;;;;;;5073352;28;20039;-68
2022/11/05 14:34:53;;;;;;;13.27;5.03;;;;;;;;;;5073689;28;20052;-68
2022/11/05 14:37:21;;;;;;;11.27;4.70;;;;;;;;;;5073250;28;20372;-68
2022/11/05 14:39:48;;;;;;;11.68;4.70;;;;;;;;;;5072964;28;20044;-68
2022/11/05 14:42:14;;;;;;;10.80;5.15;;;;;;;;;;5073457;28;20356;-68
2022/11/05 14:44:57;;;;;;;9.18;4.80;;;;;;;;;;5073408;28;20044;-68
2022/11/05 14:47:25;;;;;;;10.52;4.80;;;;;;;;;;5073536;28;20044;-68
2022/11/05 14:49:53;;;;;;;7.90;3.90;;;;;;;;;;5073298;28;20401;-68
2022/11/05 14:52:19;;;;;;;8.02;4.03;;;;;;;;;;5072899;28;20115;-68
2022/11/05 14:54:50;;;;;;;10.82;4.00;;;;;;;;;;5073233;28;20040;-68
2022/11/05 14:57:37;;;;;;;8.30;3.78;;;;;;;;;;5073266;28;20044;-68
2022/11/05 15:00:03;;;;;;;8.95;4.18;;;;;;;;;;5067300;28;20422;-68
2022/11/05 15:02:34;;;;;;;8.32;4.10;;;;;;;;;;5073203;28;20503;-68
2022/11/05 15:05:23;;;;;;;7.40;3.92;;;;;;;;;;5105740;28;20044;-68
2022/11/05 15:07:55;;;;;;;11.95;4.35;;;;;;;;;;5071679;28;20059;-68
2022/11/05 15:10:22;;;;;;;9.55;4.07;;;;;;;;;;5072299;28;20052;-68
2022/11/05 15:12:51;;;;;;;11.15;4.55;;;;;;;;;;5072995;28;20079;-68
2022/11/05 15:15:22;;;;;;;8.52;4.00;;;;;;;;;;5072399;28;20041;-68
2022/11/05 15:17:50;;;;;;;8.68;3.63;;;;;;;;;;5071276;28;20044;-68
2022/11/05 15:20:17;;;;;;;10.35;4.35;;;;;;;;;;5072666;28;20048;-68
2022/11/05 15:22:56;;;;;;;11.73;5.43;;;;;;;;;;5072423;28;20037;-68
2022/11/05 15:25:27;;;;;;;8.57;4.22;;;;;;;;;;5072636;28;20098;-68
2022/11/05 15:28:10;;;;;;;9.45;4.55;;;;;;;;;;5072388;28;20070;-68
2022/11/05 15:30:36;;;;;;;;;;;;;;;;;;5072683;28;20091;-68
2022/11/05 15:33:09;;;;;;;9.68;4.65;;;;;;;;;;5072368;28;20290;-68
2022/11/05 15:35:38;;;;;;;9.90;4.82;;;;;;;;;;5072283;28;20084;-68